RYR35YZ EDDW-LIPZ
Flight info
| Callsign | RYR35YZ |
|---|---|
| Flight time | 1h 23m |
| Altitude | 39000 |
| Route | WIMCI1M WIMCI Y804 PIROT N850 LARBU DCT WERRA P605 ELNAT DCT DINKU M867 XERUM DCT OLPIX DCT BASOG |
| Aircraft | B38M/M-SDE1FGHILORVWXY/HB1 |
Departure
| Time | 2026-05-06 17:06 |
|---|---|
| Airport | Bremen Airport (EDDW) |
Arrival
| Time | 2026-05-06 18:29 |
|---|---|
| Airport | Venice Marco Polo Airport (LIPZ) |
| Time | Latitude | Longitude | Altitude | Speed | Heading |
|---|---|---|---|---|---|
| 2026-05-06 16:32 | 53.05238 | 8.78296 | 27 ft | 0 kts | 11° |
| 2026-05-06 16:55 | 53.05232 | 8.78294 | 28 ft | 4 kts | 11° |
| 2026-05-06 16:55 | 53.05207 | 8.78286 | 26 ft | 2 kts | 11° |
| 2026-05-06 16:56 | 53.05185 | 8.78286 | 26 ft | 4 kts | 328° |
| 2026-05-06 16:56 | 53.05170 | 8.78318 | 24 ft | 3 kts | 288° |
| 2026-05-06 16:56 | 53.05169 | 8.78325 | 24 ft | 1 kts | 286° |
| 2026-05-06 16:58 | 53.05169 | 8.78324 | 24 ft | 1 kts | 286° |
| 2026-05-06 16:58 | 53.05173 | 8.78304 | 28 ft | 3 kts | 286° |
| 2026-05-06 16:58 | 53.05181 | 8.78255 | 26 ft | 6 kts | 285° |
| 2026-05-06 16:59 | 53.05191 | 8.78180 | 27 ft | 8 kts | 281° |
| 2026-05-06 16:59 | 53.05188 | 8.78077 | 26 ft | 10 kts | 252° |
| 2026-05-06 16:59 | 53.05152 | 8.77963 | 27 ft | 12 kts | 235° |
| 2026-05-06 16:59 | 53.05090 | 8.77846 | 26 ft | 15 kts | 226° |
| 2026-05-06 17:00 | 53.05021 | 8.77724 | 28 ft | 14 kts | 228° |
| 2026-05-06 17:00 | 53.04951 | 8.77594 | 24 ft | 16 kts | 228° |
| 2026-05-06 17:00 | 53.04855 | 8.77483 | 25 ft | 14 kts | 202° |
| 2026-05-06 17:00 | 53.04768 | 8.77452 | 26 ft | 3 kts | 182° |
| 2026-05-06 17:01 | 53.04763 | 8.77452 | 26 ft | 0 kts | 181° |
| 2026-05-06 17:04 | 53.04757 | 8.77452 | 28 ft | 2 kts | 181° |
| 2026-05-06 17:04 | 53.04728 | 8.77454 | 28 ft | 7 kts | 175° |
| 2026-05-06 17:05 | 53.04670 | 8.77484 | 25 ft | 11 kts | 137° |
| 2026-05-06 17:05 | 53.04661 | 8.77624 | 23 ft | 15 kts | 87° |
| 2026-05-06 17:05 | 53.04674 | 8.78194 | 23 ft | 93 kts | 88° |
| 2026-05-06 17:05 | 53.04706 | 8.79710 | 47 ft | 164 kts | 88° |
| 2026-05-06 17:06 | 53.04714 | 8.81752 | 741 ft | 184 kts | 87° |
| 2026-05-06 17:06 | 53.04738 | 8.83958 | 1765 ft | 196 kts | 84° |
| 2026-05-06 17:06 | 53.04689 | 8.86303 | 2515 ft | 216 kts | 103° |
| 2026-05-06 17:06 | 53.03905 | 8.88624 | 3064 ft | 244 kts | 134° |
| 2026-05-06 17:07 | 53.02551 | 8.90216 | 4310 ft | 238 kts | 147° |
| 2026-05-06 17:07 | 53.00984 | 8.91341 | 5048 ft | 257 kts | 172° |
| 2026-05-06 17:07 | 52.99152 | 8.91575 | 5834 ft | 271 kts | 177° |
| 2026-05-06 17:07 | 52.97287 | 8.91768 | 6920 ft | 271 kts | 178° |
| 2026-05-06 17:08 | 52.95389 | 8.91949 | 7932 ft | 276 kts | 179° |
| 2026-05-06 17:08 | 52.93465 | 8.92121 | 8944 ft | 280 kts | 179° |
| 2026-05-06 17:08 | 52.91507 | 8.92290 | 9859 ft | 285 kts | 179° |
| 2026-05-06 17:08 | 52.89494 | 8.92460 | 10574 ft | 297 kts | 179° |
| 2026-05-06 17:09 | 52.87369 | 8.92642 | 11118 ft | 315 kts | 178° |
| 2026-05-06 17:09 | 52.85150 | 8.92833 | 11812 ft | 324 kts | 179° |
| 2026-05-06 17:09 | 52.82869 | 8.93021 | 12576 ft | 330 kts | 179° |
| 2026-05-06 17:09 | 52.80557 | 8.93214 | 13406 ft | 335 kts | 178° |
| 2026-05-06 17:10 | 52.78213 | 8.93406 | 14134 ft | 340 kts | 179° |
| 2026-05-06 17:10 | 52.75840 | 8.93602 | 14852 ft | 344 kts | 179° |
| 2026-05-06 17:10 | 52.73439 | 8.93800 | 15561 ft | 348 kts | 179° |
| 2026-05-06 17:10 | 52.71003 | 8.94000 | 16254 ft | 352 kts | 179° |
| 2026-05-06 17:11 | 52.68556 | 8.94437 | 16932 ft | 357 kts | 167° |
| 2026-05-06 17:11 | 52.66193 | 8.95615 | 17592 ft | 361 kts | 165° |
| 2026-05-06 17:11 | 52.63774 | 8.96810 | 18233 ft | 365 kts | 165° |
| 2026-05-06 17:11 | 52.61325 | 8.98026 | 18805 ft | 368 kts | 165° |
| 2026-05-06 17:12 | 52.58864 | 8.99249 | 19390 ft | 371 kts | 165° |
| 2026-05-06 17:12 | 52.56381 | 9.00482 | 19954 ft | 374 kts | 165° |
| 2026-05-06 17:12 | 52.53881 | 9.01723 | 20498 ft | 376 kts | 166° |
| 2026-05-06 17:12 | 52.51370 | 9.02969 | 21074 ft | 378 kts | 166° |
| 2026-05-06 17:13 | 52.48839 | 9.04223 | 21628 ft | 381 kts | 166° |
| 2026-05-06 17:13 | 52.46292 | 9.05483 | 22208 ft | 384 kts | 166° |
| 2026-05-06 17:13 | 52.43722 | 9.06753 | 22782 ft | 387 kts | 166° |
| 2026-05-06 17:13 | 52.41132 | 9.08031 | 23327 ft | 390 kts | 167° |
| 2026-05-06 17:14 | 52.38507 | 9.09233 | 23787 ft | 393 kts | 169° |
| 2026-05-06 17:14 | 52.35860 | 9.10381 | 24280 ft | 395 kts | 169° |
| 2026-05-06 17:14 | 52.33197 | 9.11545 | 24762 ft | 397 kts | 169° |
| 2026-05-06 17:14 | 52.30551 | 9.12704 | 25234 ft | 399 kts | 169° |
| 2026-05-06 17:15 | 52.27861 | 9.13883 | 25724 ft | 401 kts | 169° |
| 2026-05-06 17:15 | 52.25153 | 9.15068 | 26194 ft | 404 kts | 169° |
| 2026-05-06 17:15 | 52.22424 | 9.16261 | 26657 ft | 407 kts | 169° |
| 2026-05-06 17:15 | 52.19682 | 9.17458 | 27113 ft | 409 kts | 169° |
| 2026-05-06 17:16 | 52.16920 | 9.18663 | 27541 ft | 411 kts | 169° |
| 2026-05-06 17:16 | 52.14152 | 9.19869 | 27967 ft | 412 kts | 169° |
| 2026-05-06 17:16 | 52.11377 | 9.21076 | 28405 ft | 414 kts | 169° |
| 2026-05-06 17:16 | 52.08585 | 9.22289 | 28817 ft | 416 kts | 169° |
| 2026-05-06 17:17 | 52.05760 | 9.23218 | 29204 ft | 413 kts | 181° |
| 2026-05-06 17:17 | 52.02919 | 9.22876 | 29577 ft | 408 kts | 192° |
| 2026-05-06 17:17 | 52.00085 | 9.22204 | 29882 ft | 413 kts | 192° |
| 2026-05-06 17:17 | 51.97242 | 9.21521 | 30235 ft | 414 kts | 192° |
| 2026-05-06 17:18 | 51.94380 | 9.20805 | 30573 ft | 416 kts | 192° |
| 2026-05-06 17:18 | 51.91496 | 9.20317 | 30879 ft | 422 kts | 182° |
| 2026-05-06 17:18 | 51.88578 | 9.21100 | 31277 ft | 431 kts | 166° |
| 2026-05-06 17:18 | 51.85857 | 9.23225 | 31598 ft | 441 kts | 150° |
| 2026-05-06 17:19 | 51.83431 | 9.26225 | 31909 ft | 446 kts | 146° |
| 2026-05-06 17:19 | 51.80990 | 9.29334 | 32163 ft | 449 kts | 146° |
| 2026-05-06 17:19 | 51.78544 | 9.32491 | 32454 ft | 451 kts | 146° |
| 2026-05-06 17:19 | 51.76097 | 9.35674 | 32724 ft | 453 kts | 146° |
| 2026-05-06 17:20 | 51.73636 | 9.38885 | 33022 ft | 455 kts | 146° |
| 2026-05-06 17:20 | 51.71168 | 9.42105 | 33373 ft | 456 kts | 146° |
| 2026-05-06 17:20 | 51.68704 | 9.45316 | 33771 ft | 455 kts | 146° |
| 2026-05-06 17:20 | 51.66239 | 9.48527 | 34084 ft | 455 kts | 146° |
| 2026-05-06 17:21 | 51.63780 | 9.51725 | 34523 ft | 452 kts | 146° |
| 2026-05-06 17:21 | 51.61345 | 9.54885 | 34938 ft | 449 kts | 146° |
| 2026-05-06 17:21 | 51.58907 | 9.58045 | 35252 ft | 449 kts | 146° |
| 2026-05-06 17:21 | 51.56476 | 9.61191 | 35550 ft | 449 kts | 146° |
| 2026-05-06 17:22 | 51.54070 | 9.64302 | 35847 ft | 449 kts | 146° |
| 2026-05-06 17:22 | 51.51639 | 9.67438 | 36112 ft | 449 kts | 146° |
| 2026-05-06 17:22 | 51.49087 | 9.70250 | 36370 ft | 440 kts | 159° |
| 2026-05-06 17:22 | 51.46244 | 9.71869 | 36659 ft | 430 kts | 174° |
| 2026-05-06 17:23 | 51.43295 | 9.72222 | 36876 ft | 423 kts | 186° |
| 2026-05-06 17:23 | 51.40346 | 9.72023 | 37065 ft | 424 kts | 186° |
| 2026-05-06 17:23 | 51.38396 | 9.71822 | 37211 ft | 423 kts | 187° |
| 2026-05-06 17:23 | 51.35464 | 9.71444 | 37502 ft | 422 kts | 188° |
| 2026-05-06 17:24 | 51.32536 | 9.71020 | 37731 ft | 422 kts | 188° |
| 2026-05-06 17:24 | 51.29611 | 9.70571 | 37958 ft | 422 kts | 189° |
| 2026-05-06 17:24 | 51.26686 | 9.70106 | 38199 ft | 422 kts | 189° |
| 2026-05-06 17:24 | 51.23761 | 9.69636 | 38406 ft | 422 kts | 189° |
| 2026-05-06 17:25 | 51.20822 | 9.69361 | 38558 ft | 426 kts | 179° |
| 2026-05-06 17:25 | 51.17894 | 9.70193 | 38754 ft | 428 kts | 171° |
| 2026-05-06 17:25 | 51.14970 | 9.71193 | 38775 ft | 430 kts | 172° |
| 2026-05-06 17:26 | 51.09136 | 9.73246 | 38792 ft | 430 kts | 171° |
| 2026-05-06 17:26 | 51.03308 | 9.75359 | 38789 ft | 429 kts | 171° |
| 2026-05-06 17:27 | 50.97489 | 9.77476 | 38793 ft | 429 kts | 171° |
| 2026-05-06 17:27 | 50.91696 | 9.79575 | 38785 ft | 429 kts | 171° |
| 2026-05-06 17:28 | 50.85883 | 9.81678 | 38773 ft | 427 kts | 171° |
| 2026-05-06 17:28 | 50.80077 | 9.83773 | 38779 ft | 428 kts | 171° |
| 2026-05-06 17:29 | 50.74274 | 9.85862 | 38784 ft | 428 kts | 171° |
| 2026-05-06 17:29 | 50.68476 | 9.87944 | 38776 ft | 427 kts | 171° |
| 2026-05-06 17:30 | 50.62678 | 9.90020 | 38793 ft | 427 kts | 171° |
| 2026-05-06 17:30 | 50.56884 | 9.92091 | 38777 ft | 426 kts | 171° |
| 2026-05-06 17:31 | 50.51092 | 9.94154 | 38786 ft | 427 kts | 171° |
| 2026-05-06 17:31 | 50.45321 | 9.96205 | 38783 ft | 428 kts | 171° |
| 2026-05-06 17:32 | 50.39512 | 9.98265 | 38776 ft | 428 kts | 171° |
| 2026-05-06 17:32 | 50.33696 | 10.00321 | 38782 ft | 428 kts | 171° |
| 2026-05-06 17:33 | 50.27888 | 10.02370 | 38777 ft | 427 kts | 171° |
| 2026-05-06 17:33 | 50.22073 | 10.04417 | 38776 ft | 428 kts | 171° |
| 2026-05-06 17:34 | 50.16292 | 10.06445 | 38779 ft | 428 kts | 171° |
| 2026-05-06 17:34 | 50.10473 | 10.08483 | 38781 ft | 428 kts | 170° |
| 2026-05-06 17:35 | 50.04661 | 10.10513 | 38774 ft | 428 kts | 171° |
| 2026-05-06 17:35 | 49.98852 | 10.12536 | 38775 ft | 428 kts | 171° |
| 2026-05-06 17:36 | 49.90137 | 10.15563 | 38783 ft | 429 kts | 171° |
| 2026-05-06 17:36 | 49.84301 | 10.17584 | 38786 ft | 429 kts | 171° |
| 2026-05-06 17:37 | 49.78503 | 10.19587 | 38783 ft | 429 kts | 171° |
| 2026-05-06 17:37 | 49.72666 | 10.21598 | 38776 ft | 430 kts | 171° |
| 2026-05-06 17:38 | 49.66809 | 10.23611 | 38790 ft | 431 kts | 171° |
| 2026-05-06 17:38 | 49.60957 | 10.25617 | 38795 ft | 431 kts | 171° |
| 2026-05-06 17:39 | 49.55106 | 10.27618 | 38791 ft | 431 kts | 171° |
| 2026-05-06 17:39 | 49.49296 | 10.29601 | 38801 ft | 430 kts | 171° |
| 2026-05-06 17:40 | 49.43461 | 10.31586 | 38788 ft | 429 kts | 171° |
| 2026-05-06 17:40 | 49.37643 | 10.33562 | 38798 ft | 428 kts | 171° |
| 2026-05-06 17:41 | 49.31825 | 10.35534 | 38799 ft | 428 kts | 171° |
| 2026-05-06 17:41 | 49.26001 | 10.37502 | 38826 ft | 428 kts | 170° |
| 2026-05-06 17:42 | 49.23174 | 10.38959 | 38797 ft | 431 kts | 155° |
| 2026-05-06 17:42 | 49.20576 | 10.41251 | 38851 ft | 432 kts | 154° |
| 2026-05-06 17:42 | 49.15384 | 10.45845 | 38835 ft | 435 kts | 153° |
| 2026-05-06 17:43 | 49.10175 | 10.50555 | 38840 ft | 435 kts | 153° |
| 2026-05-06 17:43 | 49.04973 | 10.55273 | 38839 ft | 435 kts | 153° |
| 2026-05-06 17:44 | 48.99766 | 10.59986 | 38841 ft | 435 kts | 153° |
| 2026-05-06 17:44 | 48.94552 | 10.64694 | 38836 ft | 436 kts | 154° |
| 2026-05-06 17:45 | 48.89319 | 10.69408 | 38828 ft | 436 kts | 154° |
| 2026-05-06 17:45 | 48.84098 | 10.74100 | 38825 ft | 436 kts | 154° |
| 2026-05-06 17:46 | 48.78692 | 10.78042 | 38820 ft | 428 kts | 166° |
| 2026-05-06 17:46 | 48.73088 | 10.81044 | 38826 ft | 430 kts | 165° |
| 2026-05-06 17:47 | 48.67447 | 10.84047 | 38818 ft | 430 kts | 165° |
| 2026-05-06 17:47 | 48.61806 | 10.87037 | 38819 ft | 429 kts | 165° |
| 2026-05-06 17:48 | 48.56159 | 10.90022 | 38854 ft | 429 kts | 165° |
| 2026-05-06 17:48 | 48.50557 | 10.92977 | 38833 ft | 425 kts | 165° |
| 2026-05-06 17:49 | 48.44979 | 10.95911 | 38835 ft | 425 kts | 165° |
| 2026-05-06 17:49 | 48.39422 | 10.98829 | 38829 ft | 425 kts | 165° |
| 2026-05-06 17:50 | 48.33831 | 11.01757 | 38827 ft | 425 kts | 165° |
| 2026-05-06 17:50 | 48.28249 | 11.04674 | 38829 ft | 425 kts | 165° |
| 2026-05-06 17:51 | 48.22652 | 11.07594 | 38826 ft | 426 kts | 165° |
| 2026-05-06 17:51 | 48.17067 | 11.10496 | 38834 ft | 425 kts | 165° |
| 2026-05-06 17:52 | 48.11473 | 11.13398 | 38833 ft | 425 kts | 165° |
| 2026-05-06 17:52 | 48.05892 | 11.16287 | 38834 ft | 424 kts | 165° |
| 2026-05-06 17:53 | 48.00317 | 11.19167 | 38855 ft | 423 kts | 165° |
| 2026-05-06 17:53 | 47.94755 | 11.22033 | 38852 ft | 423 kts | 165° |
| 2026-05-06 17:54 | 47.89215 | 11.24881 | 38853 ft | 423 kts | 165° |
| 2026-05-06 17:54 | 47.83634 | 11.27744 | 38856 ft | 425 kts | 165° |
| 2026-05-06 17:55 | 47.78025 | 11.30614 | 38845 ft | 425 kts | 165° |
| 2026-05-06 17:55 | 47.72459 | 11.33457 | 38836 ft | 425 kts | 165° |
| 2026-05-06 17:56 | 47.66856 | 11.36311 | 38827 ft | 424 kts | 165° |
| 2026-05-06 17:56 | 47.61271 | 11.39150 | 38802 ft | 425 kts | 165° |
| 2026-05-06 17:57 | 47.55685 | 11.41984 | 38805 ft | 424 kts | 165° |
| 2026-05-06 17:57 | 47.50097 | 11.44812 | 38792 ft | 423 kts | 165° |
| 2026-05-06 17:58 | 47.44538 | 11.47619 | 38790 ft | 423 kts | 166° |
| 2026-05-06 17:58 | 47.38959 | 11.50428 | 38774 ft | 428 kts | 166° |
| 2026-05-06 17:59 | 47.33316 | 11.53264 | 38776 ft | 429 kts | 165° |
| 2026-05-06 17:59 | 47.27668 | 11.56097 | 38769 ft | 428 kts | 166° |
| 2026-05-06 18:00 | 47.22034 | 11.58917 | 38790 ft | 428 kts | 166° |
| 2026-05-06 18:00 | 47.16396 | 11.61732 | 38765 ft | 431 kts | 165° |
| 2026-05-06 18:01 | 47.10705 | 11.64569 | 38796 ft | 432 kts | 165° |
| 2026-05-06 18:01 | 47.05045 | 11.67383 | 38692 ft | 432 kts | 165° |
| 2026-05-06 18:02 | 47.02209 | 11.68771 | 38396 ft | 426 kts | 168° |
| 2026-05-06 18:02 | 46.99377 | 11.69998 | 38023 ft | 424 kts | 168° |
| 2026-05-06 18:02 | 46.96541 | 11.71236 | 37657 ft | 424 kts | 168° |
| 2026-05-06 18:02 | 46.93717 | 11.72478 | 37304 ft | 424 kts | 168° |
| 2026-05-06 18:03 | 46.90887 | 11.73723 | 36971 ft | 423 kts | 168° |
| 2026-05-06 18:03 | 46.88077 | 11.74959 | 36632 ft | 422 kts | 168° |
| 2026-05-06 18:03 | 46.85267 | 11.76195 | 36290 ft | 420 kts | 169° |
| 2026-05-06 18:03 | 46.82469 | 11.77423 | 35895 ft | 419 kts | 169° |
| 2026-05-06 18:04 | 46.79680 | 11.78645 | 35487 ft | 418 kts | 169° |
| 2026-05-06 18:04 | 46.76907 | 11.79862 | 35097 ft | 416 kts | 170° |
| 2026-05-06 18:04 | 46.74139 | 11.81072 | 34742 ft | 414 kts | 170° |
| 2026-05-06 18:04 | 46.71386 | 11.82276 | 34385 ft | 412 kts | 170° |
| 2026-05-06 18:05 | 46.68675 | 11.83458 | 33972 ft | 410 kts | 171° |
| 2026-05-06 18:05 | 46.65961 | 11.84643 | 33508 ft | 409 kts | 171° |
| 2026-05-06 18:05 | 46.63234 | 11.85831 | 33138 ft | 410 kts | 171° |
| 2026-05-06 18:05 | 46.60496 | 11.87023 | 32672 ft | 411 kts | 171° |
| 2026-05-06 18:06 | 46.57748 | 11.88219 | 32214 ft | 412 kts | 171° |
| 2026-05-06 18:06 | 46.54996 | 11.89415 | 31884 ft | 413 kts | 171° |
| 2026-05-06 18:06 | 46.52243 | 11.90609 | 31524 ft | 413 kts | 171° |
| 2026-05-06 18:06 | 46.49487 | 11.91804 | 31136 ft | 413 kts | 171° |
| 2026-05-06 18:07 | 46.46730 | 11.92998 | 30749 ft | 414 kts | 171° |
| 2026-05-06 18:07 | 46.43971 | 11.94192 | 30369 ft | 409 kts | 172° |
| 2026-05-06 18:07 | 46.41297 | 11.95351 | 29933 ft | 397 kts | 172° |
| 2026-05-06 18:07 | 46.38719 | 11.96464 | 29461 ft | 386 kts | 172° |
| 2026-05-06 18:08 | 46.36182 | 11.97558 | 28964 ft | 375 kts | 172° |
| 2026-05-06 18:08 | 46.33714 | 11.98621 | 28531 ft | 366 kts | 172° |
| 2026-05-06 18:08 | 46.31292 | 11.99662 | 28009 ft | 360 kts | 172° |
| 2026-05-06 18:08 | 46.28916 | 12.00684 | 27541 ft | 352 kts | 172° |
| 2026-05-06 18:09 | 46.26568 | 12.01693 | 27096 ft | 343 kts | 172° |
| 2026-05-06 18:09 | 46.24328 | 12.02654 | 26651 ft | 337 kts | 172° |
| 2026-05-06 18:09 | 46.22089 | 12.03614 | 26191 ft | 335 kts | 172° |
| 2026-05-06 18:09 | 46.19850 | 12.04574 | 25754 ft | 335 kts | 172° |
| 2026-05-06 18:10 | 46.17608 | 12.05534 | 25329 ft | 334 kts | 171° |
| 2026-05-06 18:10 | 46.15387 | 12.06484 | 24871 ft | 332 kts | 171° |
| 2026-05-06 18:10 | 46.13176 | 12.07425 | 24473 ft | 331 kts | 171° |
| 2026-05-06 18:10 | 46.10974 | 12.08368 | 24062 ft | 330 kts | 171° |
| 2026-05-06 18:11 | 46.08774 | 12.09308 | 23663 ft | 328 kts | 171° |
| 2026-05-06 18:11 | 46.07327 | 12.09925 | 23375 ft | 327 kts | 171° |
| 2026-05-06 18:11 | 46.04395 | 12.11173 | 22722 ft | 334 kts | 171° |
| 2026-05-06 18:11 | 46.02123 | 12.12139 | 22225 ft | 348 kts | 170° |
| 2026-05-06 18:12 | 45.99770 | 12.13142 | 21694 ft | 354 kts | 170° |
| 2026-05-06 18:12 | 45.97396 | 12.14151 | 21251 ft | 356 kts | 169° |
| 2026-05-06 18:12 | 45.95035 | 12.15154 | 20793 ft | 356 kts | 169° |
| 2026-05-06 18:12 | 45.92691 | 12.16148 | 20353 ft | 354 kts | 169° |
| 2026-05-06 18:13 | 45.90326 | 12.17150 | 19900 ft | 353 kts | 169° |
| 2026-05-06 18:13 | 45.87978 | 12.18144 | 19465 ft | 351 kts | 169° |
| 2026-05-06 18:13 | 45.86421 | 12.18803 | 19177 ft | 350 kts | 169° |
| 2026-05-06 18:13 | 45.83306 | 12.20120 | 18610 ft | 348 kts | 169° |
| 2026-05-06 18:14 | 45.81768 | 12.20770 | 18324 ft | 348 kts | 169° |
| 2026-05-06 18:14 | 45.79445 | 12.21747 | 17857 ft | 346 kts | 170° |
| 2026-05-06 18:14 | 45.77097 | 12.22142 | 17373 ft | 334 kts | 187° |
| 2026-05-06 18:14 | 45.74828 | 12.21719 | 16924 ft | 326 kts | 191° |
| 2026-05-06 18:15 | 45.72593 | 12.21278 | 16478 ft | 321 kts | 191° |
| 2026-05-06 18:15 | 45.70395 | 12.20835 | 16004 ft | 317 kts | 191° |
| 2026-05-06 18:15 | 45.68223 | 12.20392 | 15556 ft | 314 kts | 191° |
| 2026-05-06 18:15 | 45.66121 | 12.19960 | 15139 ft | 311 kts | 191° |
| 2026-05-06 18:16 | 45.63962 | 12.19517 | 14699 ft | 308 kts | 190° |
| 2026-05-06 18:16 | 45.61847 | 12.19082 | 14281 ft | 306 kts | 190° |
| 2026-05-06 18:16 | 45.59739 | 12.18647 | 13868 ft | 306 kts | 190° |
| 2026-05-06 18:16 | 45.57632 | 12.18211 | 13417 ft | 305 kts | 192° |
| 2026-05-06 18:17 | 45.55654 | 12.17229 | 12928 ft | 301 kts | 210° |
| 2026-05-06 18:17 | 45.53896 | 12.15629 | 12499 ft | 297 kts | 213° |
| 2026-05-06 18:17 | 45.52198 | 12.13988 | 12036 ft | 291 kts | 214° |
| 2026-05-06 18:17 | 45.50547 | 12.12397 | 11589 ft | 282 kts | 214° |
| 2026-05-06 18:18 | 45.48957 | 12.10876 | 11151 ft | 275 kts | 214° |
| 2026-05-06 18:18 | 45.47378 | 12.09343 | 10701 ft | 268 kts | 218° |
| 2026-05-06 18:18 | 45.46025 | 12.07615 | 10282 ft | 262 kts | 224° |
| 2026-05-06 18:18 | 45.44726 | 12.05817 | 9860 ft | 259 kts | 224° |
| 2026-05-06 18:19 | 45.43435 | 12.04035 | 9412 ft | 259 kts | 224° |
| 2026-05-06 18:19 | 45.42128 | 12.02235 | 8961 ft | 263 kts | 224° |
| 2026-05-06 18:19 | 45.40805 | 12.00417 | 8501 ft | 266 kts | 224° |
| 2026-05-06 18:19 | 45.39458 | 11.98571 | 8055 ft | 270 kts | 224° |
| 2026-05-06 18:20 | 45.38108 | 11.96724 | 7606 ft | 267 kts | 224° |
| 2026-05-06 18:20 | 45.36780 | 11.94912 | 7155 ft | 261 kts | 224° |
| 2026-05-06 18:20 | 45.35363 | 11.93351 | 6705 ft | 258 kts | 206° |
| 2026-05-06 18:20 | 45.33621 | 11.92857 | 6247 ft | 258 kts | 178° |
| 2026-05-06 18:21 | 45.31917 | 11.93610 | 5766 ft | 260 kts | 150° |
| 2026-05-06 18:21 | 45.30593 | 11.95298 | 5345 ft | 259 kts | 135° |
| 2026-05-06 18:21 | 45.29406 | 11.97182 | 4962 ft | 254 kts | 134° |
| 2026-05-06 18:21 | 45.28267 | 11.99065 | 4548 ft | 250 kts | 126° |
| 2026-05-06 18:22 | 45.27677 | 12.01359 | 4115 ft | 250 kts | 96° |
| 2026-05-06 18:22 | 45.27898 | 12.03783 | 3752 ft | 246 kts | 75° |
| 2026-05-06 18:22 | 45.28418 | 12.06070 | 3387 ft | 242 kts | 68° |
| 2026-05-06 18:22 | 45.29347 | 12.08007 | 3148 ft | 232 kts | 46° |
| 2026-05-06 18:23 | 45.30481 | 12.09506 | 3127 ft | 216 kts | 43° |
| 2026-05-06 18:23 | 45.31579 | 12.10910 | 3064 ft | 207 kts | 43° |
| 2026-05-06 18:23 | 45.32611 | 12.12229 | 3074 ft | 193 kts | 43° |
| 2026-05-06 18:23 | 45.33603 | 12.13498 | 3070 ft | 192 kts | 43° |
| 2026-05-06 18:24 | 45.34597 | 12.14770 | 3029 ft | 191 kts | 43° |
| 2026-05-06 18:24 | 45.35584 | 12.16032 | 3006 ft | 191 kts | 43° |
| 2026-05-06 18:24 | 45.36570 | 12.17294 | 2999 ft | 191 kts | 43° |
| 2026-05-06 18:24 | 45.37558 | 12.18562 | 3003 ft | 191 kts | 43° |
| 2026-05-06 18:25 | 45.38548 | 12.19829 | 2784 ft | 191 kts | 43° |
| 2026-05-06 18:25 | 45.39531 | 12.21088 | 2564 ft | 189 kts | 43° |
| 2026-05-06 18:25 | 45.40487 | 12.22314 | 2332 ft | 180 kts | 44° |
| 2026-05-06 18:25 | 45.41366 | 12.23441 | 2108 ft | 165 kts | 43° |
| 2026-05-06 18:26 | 45.42175 | 12.24479 | 1922 ft | 151 kts | 44° |
| 2026-05-06 18:26 | 45.42951 | 12.25475 | 1770 ft | 149 kts | 43° |
| 2026-05-06 18:26 | 45.43714 | 12.26470 | 1563 ft | 147 kts | 44° |
| 2026-05-06 18:26 | 45.44471 | 12.27445 | 1357 ft | 146 kts | 43° |
| 2026-05-06 18:27 | 45.45247 | 12.28379 | 1105 ft | 145 kts | 43° |
| 2026-05-06 18:27 | 45.45998 | 12.29335 | 889 ft | 143 kts | 44° |
| 2026-05-06 18:27 | 45.46710 | 12.30305 | 692 ft | 141 kts | 44° |
| 2026-05-06 18:27 | 45.47433 | 12.31250 | 507 ft | 141 kts | 41° |
| 2026-05-06 18:28 | 45.48171 | 12.32175 | 326 ft | 142 kts | 42° |
| 2026-05-06 18:28 | 45.48915 | 12.33121 | 150 ft | 145 kts | 43° |
| 2026-05-06 18:28 | 45.49648 | 12.34075 | 23 ft | 140 kts | 43° |
| 2026-05-06 18:28 | 45.50255 | 12.34860 | 17 ft | 82 kts | 42° |
| 2026-05-06 18:29 | 45.50562 | 12.35255 | 16 ft | 55 kts | 39° |
| 2026-05-06 18:29 | 45.50814 | 12.35431 | 18 ft | 26 kts | 13° |
| 2026-05-06 18:29 | 45.50874 | 12.35451 | 18 ft | 0 kts | 11° |
| 2026-05-06 18:29 | 45.50877 | 12.35452 | 18 ft | 1 kts | 11° |
| 2026-05-06 18:30 | 45.50883 | 12.35453 | 18 ft | 2 kts | 11° |
| 2026-05-06 18:30 | 45.50907 | 12.35454 | 19 ft | 5 kts | 354° |
| 2026-05-06 18:30 | 45.50955 | 12.35421 | 20 ft | 11 kts | 314° |
| 2026-05-06 18:30 | 45.50972 | 12.35288 | 19 ft | 18 kts | 261° |
| 2026-05-06 18:31 | 45.50896 | 12.35125 | 19 ft | 22 kts | 221° |
| 2026-05-06 18:31 | 45.50776 | 12.34973 | 19 ft | 24 kts | 222° |
| 2026-05-06 18:31 | 45.50656 | 12.34820 | 18 ft | 23 kts | 221° |
| 2026-05-06 18:31 | 45.50602 | 12.34610 | 18 ft | 21 kts | 267° |
| 2026-05-06 18:32 | 45.50578 | 12.34402 | 19 ft | 16 kts | 229° |
| 2026-05-06 18:32 | 45.50499 | 12.34309 | 18 ft | 15 kts | 239° |
| 2026-05-06 18:32 | 45.50492 | 12.34236 | 18 ft | 5 kts | 266° |
| 2026-05-06 18:32 | 45.50492 | 12.34228 | 18 ft | 0 kts | 267° |